x

8447387 - Borden Flats Light At Fall River, Ma (bltm3) Weather Station

2:30 - Sun 31st Jul 2016 All times are EDT. -4 hours from GMT.

  • Wind
    3mph, 6mph gusts
  • Luft Temp 74°f
  • Sea Pressure 1018.1mb
  • 8447387 - Borden Flats Light At Fall River, Ma
  • 8447387 - Borden Flats Light At Fall River, Ma

More Historic Weather Station data

Upgrade to MSW Pro to gain access to the past 30 days of data for over 8000 Wavebouys and Weather Stations around the globe.

Join Pro

Comparision Forecast

View Surf forecast
   
So 07/31 2:30 3 6 mph 1018.1mb 74f
2:24 5
mph
1018mb 74f
2:18 5 6 mph 1018mb 74f
2:12 5 6 mph 1017.9mb 74f
2:06 5 6 mph 1018mb 74f
2:00 5 6 mph 1018mb 74f
1:54 3 6 mph 1018mb 74f
1:48 3 6 mph 1018mb -
1:42 5 7 mph 1018mb -
1:36 5 6 mph 1018mb -
1:30 3 5 mph 1018.1mb 74f
1:24 3 5 mph 1018.2mb 74f
1:18 2 3 mph 1018.2mb 74f
1:12 2 3 mph 1018.2mb 74f
1:06 3 5 mph 1018.2mb 74f
1:00 5 6 mph 1018.3mb 74f
12:54 5 7 mph 1018.3mb 74f
12:48 6 8 mph 1018.4mb 74f
12:42 6 8 mph 1018.3mb 74f
12:36 7 10 mph 1018.3mb 74f
12:30 7 8 mph 1018.4mb 74f
12:24 6 8 mph 1018.4mb 74f
12:18 6 7 mph 1018.4mb 74f
12:12 3 6 mph 1018.4mb 74f
12:06 3 6 mph 1018.5mb 74f
12:00 5 8 mph 1018.4mb 74f
Sa 07/30 11:54 8 9 mph 1018.4mb 74f
11:48 7 9 mph 1018.4mb 74f
11:42 6 8 mph 1018.4mb 74f
11:36 7 8 mph 1018.5mb 74f
11:30 7 9 mph 1018.5mb 74f
11:24 7 9 mph 1018.5mb 74f
11:18  -  mph 1018.4mb -
11:12  -  mph 1018.4mb -
11:06  -  mph 1018.5mb -
11:00  -  mph 1018.5mb -
10:54  -  mph 1018.4mb -
10:48 8 11 mph 1018.4mb -
10:42 8 10 mph 1018.5mb -
10:36 8 10 mph 1018.6mb -
10:30 8 10 mph - -
10:24 8 11 mph - -
10:18 6 8 mph 1018.6mb -
10:12 7 10 mph 1018.7mb -
10:06 6 8 mph 1018.8mb -
10:00 7 9 mph 1018.7mb -
9:54 7 9 mph 1018.8mb -
9:48 8 10 mph - -
9:42 8 10 mph - -
9:36 9 14 mph - -
9:30 9 13 mph - -
9:24 11 15 mph - -
9:18 9 11 mph - -
9:12 8 10 mph - -
9:06 9 10 mph - -
9:00 8 10 mph 1018.4mb -
8:54 9 11 mph 1018.3mb -
8:48 9 13 mph 1018.2mb -
8:42 8 9 mph 1018.1mb -
8:36 8 10 mph 1017.9mb -
8:30 7 9 mph - -
8:24 9 13 mph - -
8:18 8 10 mph - 75f
8:12 8 10 mph - 75f
8:06 8 9 mph - 75f
8:00 9 11 mph - 75f
7:30 7 8 mph - -
7:24 8 10 mph - -
7:18 8 11 mph 1017.3mb -
7:12 8 13 mph 1017.2mb -
7:00 9 14 mph 1017.2mb -
6:54 9 14 mph 1017.1mb -
6:48 9 13 mph 1017mb -
6:42 10 13 mph 1016.9mb -
6:36 10 15 mph 1016.8mb -
6:30 10 14 mph - 77f
6:24 11 14 mph - 78f
6:18 10 15 mph 1016.6mb -
6:12 9 11 mph 1016.5mb -
6:06 11 14 mph 1016.4mb -
6:00  -  mph - 78f
5:54  -  mph - 79f
5:48 11 15 mph 1016.3mb 79f
5:42 15 18 mph 1016.1mb 79f
5:36 13 16 mph 1016mb 79f
5:30 13 15 mph 1016mb 80f
5:24 14 16 mph 1015.9mb 80f
5:18 13 14 mph 1015.9mb 80f
5:12 11 15 mph 1015.9mb 80f
5:06 11 15 mph 1015.9mb 80f
4:54 15 17 mph 1015.8mb 79f
4:48 15 16 mph 1015.9mb 79f
4:42 16 17 mph 1015.9mb 79f
4:30 17 18 mph 1015.8mb 79f
4:24 16 17 mph 1015.8mb 79f
4:18 17 18 mph 1015.7mb 79f
4:12 17 20 mph 1015.8mb 79f
4:06 18 20 mph 1015.8mb 78f
4:00 20 21 mph 1015.8mb 78f
3:54 20 21 mph 1015.9mb 78f
3:48 18 21 mph 1016mb 78f
3:42 17 20 mph 1015.9mb 78f
3:36 16 18 mph 1016mb 78f
3:30 13 16 mph 1016.3mb 80f
3:24 11 15 mph 1016.3mb 79f
3:18 10 15 mph 1016.4mb 79f
3:12 11 16 mph 1016.4mb 80f
3:06 9 13 mph 1016.5mb 82f
3:00 6 10 mph 1016.7mb 82f
2:54 8 13 mph 1016.6mb 82f
2:48 9 15 mph 1016.6mb 81f
2:42 9 11 mph 1016.8mb 81f
2:36 9 11 mph 1016.8mb 81f
2:30 9 14 mph 1016.9mb 81f
2:24 11 15 mph 1016.9mb 80f
2:18 10 14 mph 1016.9mb 80f
2:12 11 15 mph 1016.9mb 80f
2:06 14 16 mph 1016.8mb 79f
2:00 15 16 mph 1016.8mb 79f
1:54 15 17 mph 1016.9mb 79f
1:48 16 17 mph 1016.8mb 78f
1:42 16
mph
1017mb 78f
1:36 15 16 mph 1017.1mb 79f
1:30 14 15 mph 1017.2mb 79f
1:24 14 15 mph 1017.2mb 80f
1:18 7 9 mph 1017.2mb 81f
1:12 7 8 mph 1017.2mb 80f
1:06 7 8 mph 1017.2mb 81f
1:00 5 7 mph 1017.3mb 81f
12:54 3 5 mph 1017.2mb 82f
12:48 3 5 mph 1017.2mb 88f
12:42 2 3 mph 1017.2mb 88f
12:36 3 5 mph 1017.2mb 88f
12:30 3 6 mph 1017.2mb 87f
12:24 3 6 mph 1017.2mb 87f
12:18 5 6 mph 1017.1mb 87f
12:12 6 7 mph 1017.1mb 86f
12:06 5 6 mph 1017.1mb 86f
12:00 5 6 mph 1017.2mb 85f
11:54 6
mph
1017.2mb 85f
11:48 3 5 mph 1017.2mb 84f
11:42 5 6 mph 1017.2mb 84f
11:36 5 6 mph 1017.1mb 84f
11:30 6
mph
1017.1mb 83f
11:24 6
mph
1017mb 83f
11:18 3 6 mph 1016.9mb 82f
11:12 6
mph
1017mb 82f
11:06 6 7 mph 1017mb 82f
11:00 6 7 mph 1017mb 81f
10:54 7 8 mph 1017mb 80f
10:48 6 7 mph 1017mb 80f
10:42 8 10 mph 1017mb 80f
10:36 8 9 mph 1016.9mb 80f
10:30 7 8 mph 1016.9mb 79f
10:24 8 9 mph 1016.9mb 79f
10:18 10 13 mph 1016.8mb 79f
10:12 8 9 mph 1016.9mb 79f
10:06 7 9 mph 1016.8mb 78f
9:54 8 9 mph 1016.7mb 78f
9:48 7 9 mph 1016.7mb 78f
9:42 7 9 mph 1016.7mb 77f
9:36 9 11 mph 1016.7mb 77f
9:30 9 10 mph 1016.7mb 77f
9:24 8 10 mph 1016.6mb 77f
9:18 8 10 mph 1016.6mb 76f
9:12 9 11 mph 1016.4mb 76f
9:06 10 11 mph 1016.4mb 76f
9:00 11 14 mph 1016.4mb 76f
8:54 11 14 mph 1016.4mb 75f
8:48 11 14 mph 1016.3mb 75f
8:42 11 14 mph 1016.3mb 75f
8:36 11 14 mph 1016.3mb 75f
8:30 13 14 mph 1016.3mb 74f
8:24 11 14 mph 1016.3mb 74f
8:18 10 13 mph 1016.2mb 74f
8:12 8 10 mph 1016.3mb 74f
8:06 9 11 mph 1016.2mb 74f
8:00 9 11 mph 1016.3mb 74f
7:54 10 11 mph 1016.3mb 74f
7:48 7 9 mph 1016.2mb 73f
7:42 7 9 mph 1016.1mb 73f
7:36 9 13 mph 1016.1mb 73f
7:30 6 9 mph 1016.1mb 73f
7:24 6 7 mph 1016mb 73f
7:18 7 8 mph 1015.9mb 72f
7:12 7 8 mph 1015.8mb 72f
7:06 7 9 mph 1015.7mb 71f
7:00 6 7 mph 1015.7mb 71f
6:54 6 8 mph 1015.6mb 71f
6:48 3 6 mph 1015.6mb 72f
6:36 3 5 mph 1015.4mb 72f
6:30 3 5 mph 1015.3mb 72f
6:24 2 5 mph 1015.3mb 72f
6:18 1 2 mph 1015.2mb 72f
6:12 2 3 mph 1015.2mb 72f
6:06 2 3 mph 1015.1mb 72f
6:00 2 3 mph 1015mb 72f
5:54 2 3 mph 1014.9mb 71f
5:48 2 3 mph 1014.9mb 71f
5:42 3 5 mph 1014.9mb 72f
5:36 2 5 mph 1014.8mb 71f
5:30 2 3 mph 1014.9mb 72f
5:24 1 3 mph 1014.8mb 72f
5:18 2 3 mph 1014.7mb 72f
5:12 3 5 mph 1014.6mb 72f
5:06 2 5 mph 1014.6mb 72f
5:00 2 3 mph 1014.6mb 72f
4:54 2
mph
1014.6mb 72f
4:48  -  2 mph 1014.5mb 72f
4:42  -  1 mph 1014.4mb 72f
4:36  -  2 mph 1014.4mb 72f
4:30 2 3 mph 1014.3mb 72f
4:24 2 3 mph 1014.3mb 72f
4:18 2 3 mph 1014.3mb 72f
4:12 2 3 mph 1014.2mb 73f
4:06 2 3 mph 1014.2mb 73f
4:00 2 3 mph 1014.1mb 73f
3:54  -  1 mph 1014.1mb 73f
3:48  -  1 mph 1014.1mb 73f
3:42  -  1 mph 1014.1mb 73f
3:36  -  mph 1014.1mb 73f
3:30  -  1 mph 1014mb 73f
3:24 2 3 mph 1014mb 73f
3:18  -  mph 1013.9mb 73f
3:12 1 2 mph 1013.8mb 73f
3:06  -  1 mph 1013.8mb 72f
3:00  -  mph 1013.8mb 72f
2:54  -  1 mph 1013.8mb 72f
2:48  -  mph 1013.7mb 72f
2:42  -  1 mph 1013.6mb 72f
2:36  -  1 mph 1013.7mb 72f
2:30  -  2 mph 1013.7mb 72f
2:24 2 3 mph 1013.7mb 72f
2:18 1 2 mph 1013.8mb 72f
2:12 2 3 mph 1013.7mb 72f
2:06 2 3 mph 1013.6mb 72f
2:00  -  2 mph 1013.6mb 72f
1:54 2 3 mph 1013.6mb 72f
1:48 3 5 mph 1013.5mb 72f
1:42 5 6 mph 1013.5mb 72f
1:36 3 5 mph 1013.4mb 72f
1:30 3 5 mph 1013.5mb 72f
1:24 3
mph
1013.5mb 73f
1:18 2 3 mph 1013.6mb 73f
1:12 2 3 mph 1013.6mb 73f
1:06 2 3 mph 1013.5mb 73f
1:00 2
mph
1013.6mb 73f
12:54  -  mph 1013.5mb 73f
12:48  -  2 mph 1013.5mb 73f
12:42 1 2 mph 1013.5mb 73f
12:36 2 3 mph 1013.4mb 73f
12:30 2
mph
1013.4mb 73f
12:24 2
mph
1013.4mb 73f
12:18  -  2 mph 1013.4mb 73f
12:12 2 3 mph 1013.4mb 73f
12:06 3 5 mph 1013.3mb 74f
12:00 6
mph
1013.2mb 74f
Fr 07/29 11:54 5 6 mph 1013.2mb 74f
11:48 3 5 mph 1013.2mb 74f
11:42 3 5 mph 1013.1mb 74f
11:36 5 6 mph 1013.1mb 74f
11:30  -  mph 1013.1mb -
11:24  -  mph 1013.1mb -
11:18 5
mph
- -
11:12 5 6 mph - -
11:06 6
mph
- -
11:00  -  mph 1012.9mb -
10:54  -  mph 1012.8mb -
10:48 5 6 mph 1012.8mb -
10:42 5 6 mph 1012.7mb -
10:36 5 6 mph 1012.7mb -
10:30 5 6 mph 1012.6mb -
10:24 5 6 mph 1012.6mb -
10:18 5 6 mph 1012.6mb -
10:12 5 6 mph 1012.6mb -
10:06 5 6 mph 1012.6mb -
10:00 5 6 mph 1012.7mb 76f
9:54 6
mph
1012.8mb 76f
9:48 6 7 mph 1012.7mb -
9:42 6
mph
1012.7mb -
9:36 6 7 mph 1012.6mb -
9:30 6 8 mph 1012.5mb -
9:24 6 7 mph 1012.6mb -
9:18 6 7 mph - -
9:12 5 6 mph - -
9:06 6
mph
- -
9:00  -  mph 1012.5mb -
8:54  -  mph 1012.5mb -
8:48 3 5 mph 1012.3mb -
8:42 3 5 mph 1012.2mb -
8:36 3 5 mph 1012.2mb -
8:30 3
mph
1012mb -
8:24 5 6 mph 1011.9mb -
8:18 6 7 mph - 78f
8:12 7 8 mph - 78f
8:06 7 8 mph - 78f
8:00 7 8 mph - 78f
7:54 8 9 mph - 79f
7:48 8 10 mph - 79f
6:54 8 10 mph - 82f
6:48 6 9 mph - 83f
6:18  -  mph 1010.6mb -
6:06  -  mph 1010.4mb -
6:00  -  mph 1010.3mb 82f
5:54  -  mph 1010.2mb 82f
5:48 11 15 mph 1010.2mb 82f
5:42 10 14 mph 1010.2mb 82f
5:36 13 16 mph 1010.1mb 81f
5:30 14 16 mph 1010.1mb 81f
5:24 11 16 mph 1010.2mb 81f
5:18 13 15 mph 1010.1mb 81f
5:12 13 18 mph 1010.1mb 81f
5:06 14 18 mph 1010.1mb 82f
5:00 14 18 mph 1010mb 81f
4:54 10 14 mph 1010.1mb 81f
4:48 13 15 mph 1010mb 81f
4:42 16 20 mph 1009.9mb 80f
4:36 17 20 mph 1009.9mb 81f
4:30 13 15 mph 1009.9mb 81f
4:24 14 17 mph 1009.9mb 81f
4:18 11 14 mph 1010mb 81f
4:12 13 15 mph 1009.9mb 81f
4:06 14 17 mph 1009.9mb 81f
4:00 11 14 mph 1009.9mb 81f
3:54 10 14 mph 1009.9mb 81f
3:48 11 14 mph 1009.8mb 81f
3:42 14 18 mph 1009.8mb 81f
3:36 13 16 mph 1009.8mb 81f
3:30 9 11 mph 1010mb 81f
3:24 9 13 mph 1010mb 80f
3:18 9 11 mph 1010mb 80f
3:12 8 11 mph 1010mb 80f
3:06 9 11 mph 1010.1mb 80f
3:00 8 10 mph 1010.1mb 80f
2:54 8 10 mph 1010.2mb 79f
2:48 8 11 mph 1010.2mb 79f
2:42 10 11 mph 1010.2mb 78f
2:36 11 15 mph 1010.2mb 78f
2:30 9 10 mph 1010.2mb 78f
2:24 10 14 mph 1010.2mb 78f
2:18 9 10 mph 1010.3mb 78f
2:12 10 11 mph 1010.3mb 77f
2:06 10 13 mph 1010.4mb 77f
2:00 13 14 mph 1010.4mb 76f
1:54 10 13 mph 1010.6mb 76f
1:48 9 10 mph 1010.7mb 76f
1:42 9 11 mph 1010.8mb 76f
1:36 10 13 mph 1010.8mb 75f
1:30 9 13 mph 1010.9mb 75f
1:24 10 13 mph 1010.9mb 75f
1:18 9 11 mph 1010.9mb 75f
1:12 11 13 mph 1010.9mb 75f
1:06 11 14 mph 1010.9mb 74f
1:00 13 15 mph 1010.9mb 74f
12:54 10 14 mph 1011mb 74f
12:48 11 15 mph 1011mb 74f
12:42 11 14 mph 1011.1mb 74f
12:36 8 9 mph 1011.3mb 75f
12:30 9 11 mph 1011.4mb 75f
12:24 9 11 mph 1011.4mb 74f
12:18 9 11 mph 1011.4mb 74f
12:12 9 11 mph 1011.6mb 74f
12:06 10 13 mph 1011.7mb 75f
12:00 13 14 mph 1011.8mb 74f
11:54 9 13 mph 1011.8mb 75f
11:48 6 8 mph 1011.9mb 75f
11:42 6 7 mph 1012mb 75f
11:36 5 6 mph 1012.1mb 75f
11:30 5 6 mph 1012.1mb 75f
11:24 3 6 mph 1012.1mb 75f
11:18 5 6 mph 1012.1mb 75f
11:12 2 3 mph 1012.1mb 75f
11:06 3 5 mph 1012.1mb 75f
11:00 3 5 mph 1012mb 75f
10:54 3 5 mph 1012mb 75f
10:48 5 6 mph 1012.1mb 75f
10:42 3 6 mph 1012.1mb 75f
10:36 5 7 mph 1012mb 75f
10:30 7 9 mph 1011.7mb 75f
10:24 8 10 mph 1011.5mb 75f
10:18 8 10 mph 1011.4mb 75f
10:12 6 8 mph 1011.4mb 75f
10:06 2 5 mph 1011.5mb 75f
10:00 5 6 mph 1011.5mb 75f
9:54 6 8 mph 1011.4mb 75f
9:48 7 10 mph 1011.4mb 75f
9:42 7 8 mph 1011.6mb 75f
9:36 7 8 mph 1011.7mb 75f
9:30 8 9 mph 1011.9mb 75f
9:24 8 10 mph 1011.9mb 75f
9:18 8 10 mph 1011.8mb 75f
9:06 8 9 mph 1011.4mb 75f
9:00 8 10 mph 1011.2mb 75f
8:54 9 11 mph 1011.2mb 75f
8:48 7 11 mph 1011.2mb 76f
8:42 8 10 mph 1011.2mb 75f
8:36 7 9 mph 1011.2mb 75f
8:30 6 8 mph 1011.3mb 75f
8:24 6 8 mph 1011.3mb 76f
8:18 5 6 mph 1011.3mb 76f
8:12 3 5 mph 1011.3mb 76f
8:06 5 7 mph 1011.3mb 76f
8:00 6 8 mph 1011.3mb 76f
7:54 7 10 mph 1011.2mb 76f
7:48 9 11 mph 1011mb 76f
7:42 8 9 mph 1011.1mb 76f
7:36 7 8 mph 1011.1mb 76f
7:30 6 8 mph 1011.1mb 76f
7:24 7 8 mph 1011.1mb 76f
7:18 7 9 mph 1011.1mb 76f
7:12 6 9 mph 1011.2mb 77f
7:06 6 9 mph 1011.3mb 76f
7:00 7 8 mph 1011.4mb 77f
6:54 8 10 mph 1011.3mb 76f
6:48 6 7 mph 1011.2mb 76f
6:42 7 9 mph 1011.1mb 76f
6:36 7 10 mph 1011.1mb 76f
6:30 6 7 mph 1011.1mb 76f
6:24 3 6 mph 1011.1mb 76f
6:18 2 5 mph 1010.9mb 76f
6:12 2 3 mph 1010.8mb 76f
6:06 2 3 mph 1010.8mb 76f
6:00 3 5 mph 1010.9mb 76f
5:54 5 6 mph 1011mb 76f
5:48 6
mph
1011.1mb 76f
5:42 6 7 mph 1011.1mb 76f
5:36 7 8 mph 1011.2mb 76f
5:30 8
mph
1011.1mb 76f
5:24 7 8 mph 1010.9mb 76f
5:18 6 8 mph 1010.8mb 76f
5:12 7 8 mph 1010.8mb 76f
5:06 7 8 mph 1010.9mb 76f
5:00 8 9 mph 1010.9mb 77f
4:54 7 8 mph 1010.9mb 77f
4:48 7 8 mph 1010.9mb 77f
4:42 7 9 mph 1011mb 77f
4:36 7 8 mph 1011.1mb 77f
4:30 6 8 mph 1011.1mb 77f
4:24 6 9 mph 1011.1mb 77f
4:18 7 9 mph 1011.1mb 77f
4:12 7 8 mph 1011.1mb 77f
4:06 6 8 mph 1011mb 77f
4:00 6 7 mph 1010.9mb 77f
3:54 7 8 mph 1010.9mb 77f
3:48 6 8 mph 1010.8mb 77f
3:42 7 9 mph 1010.8mb 77f
3:36 6
mph
1010.9mb 77f
3:30 6 7 mph 1010.9mb 77f
3:24 3 5 mph 1011mb 76f
3:12 5 6 mph 1011.1mb 76f
3:06 5 7 mph 1011.2mb 76f
3:00 6 8 mph 1011.3mb 76f
2:54 6 7 mph 1011.5mb 77f
2:48 5 6 mph 1011.5mb -
2:42 3 6 mph 1011.4mb -
2:36 1 2 mph 1011.4mb -
2:30 2 5 mph 1011.4mb 77f
2:24 3 5 mph 1011.4mb 76f
2:18 3 5 mph 1011.5mb 77f
2:12 5 6 mph 1011.7mb 77f
2:06 3 5 mph 1011.7mb 77f
2:00 6 8 mph 1011.8mb 77f
1:54 5 8 mph 1011.7mb 77f
1:48 5 6 mph 1011.7mb -
1:42 6 7 mph 1011.7mb -
1:36 5 6 mph 1011.7mb -
1:30 5 7 mph 1011.6mb 77f
1:24 6 7 mph 1011.7mb 77f
1:18 6 9 mph 1011.8mb 77f
1:12 6 8 mph 1011.8mb 77f
1:06 5 8 mph 1011.9mb 77f
1:00 6 8 mph 1011.8mb 77f
12:54 7 9 mph 1011.9mb 77f
12:48 6 7 mph 1011.8mb 77f
12:42 6 7 mph 1011.7mb 77f
12:36 6 8 mph 1011.7mb 77f
12:30 5 6 mph 1011.7mb 77f
12:24 8 10 mph 1012mb 77f
12:18 7 10 mph 1012mb 77f
12:12 6 8 mph 1012mb 77f
12:06 7 8 mph 1012.1mb 77f
12:00 7 9 mph 1012.3mb 77f
Do 07/28 11:54 8 9 mph 1012.2mb 77f
11:48 6 8 mph 1012.2mb 77f
11:42 6 8 mph 1012.2mb 77f
11:36 5 6 mph 1012.1mb 77f
11:30 5 8 mph 1012.2mb 77f
11:24 5 6 mph 1012.3mb 77f
11:18  -  mph 1012.4mb -
11:12  -  mph 1012.3mb -
11:06  -  mph 1012.4mb -
11:00 6 7 mph - -
10:54 6 7 mph - -
10:48 7 8 mph 1012.4mb -
10:42 6 7 mph 1012.4mb -
10:36 5 8 mph 1012.4mb -
10:30 5 6 mph - -
10:24 5 7 mph - -
10:18  -  mph - 77f
10:12  -  mph - 78f
10:06  -  mph - 78f
10:00  -  mph 1012.2mb -
9:54  -  mph 1012.2mb -
9:48 3 5 mph 1012.2mb -
9:42 3 5 mph 1012.2mb -
9:36 3 5 mph 1012.1mb -
9:30 5 6 mph 1012.1mb -
9:24 7 10 mph 1012.1mb -
9:18 9 11 mph - -
9:12 8 9 mph - -
9:06 10 13 mph - -
9:00  -  mph - 77f
8:54  -  mph - 78f
8:48 9 13 mph 1012.1mb -
8:36 13 15 mph 1011.9mb -
8:30 13 15 mph 1011.9mb -
8:24 11 15 mph 1012mb -
8:18 15 18 mph 1012mb -
8:12 11 16 mph 1011.9mb -
8:06 13 15 mph 1011.9mb -
8:00  -  mph - 78f
7:54  -  mph - 78f
7:48 11 14 mph 1012.1mb -
7:42 10 15 mph 1012.1mb -
7:36 10 15 mph 1012.1mb -
7:30 9 14 mph - -
7:24 9 11 mph - -
7:18 10 13 mph - -
7:12 9 13 mph - -
7:06 9 15 mph - -
7:00 9 11 mph - -
6:54 11 15 mph - -
6:48 10 14 mph - -
6:42 13 16 mph - -
6:36 10 14 mph - -
6:30 8 11 mph 1011.9mb -
6:18 10 14 mph 1011.8mb 81f
6:06 14 18 mph 1011.6mb 81f
6:00 13 17 mph 1011.6mb -
5:54 11 16 mph 1011.5mb -
5:48 14 18 mph - 82f
5:42 13 16 mph - 82f
5:36 15 20 mph - 82f
5:30 13 17 mph 1011.4mb 82f
5:24 14 21 mph 1011.4mb 82f
5:18 13 17 mph 1011.3mb 82f
5:12 15 18 mph 1011.3mb 82f
5:06 14 17 mph 1011.3mb 83f
5:00 14 20 mph 1011.3mb 82f
4:54 15 21 mph 1011.3mb 83f
4:48 15 20 mph 1011.2mb 82f
4:42 15 21 mph 1011.2mb 83f
4:36 14 20 mph 1011.3mb 83f
4:30 14 17 mph 1011.4mb 83f
4:24 17 21 mph 1011.3mb 83f
4:18 17 23 mph 1011.3mb 83f
4:12 14 18 mph 1011.4mb 83f
4:06 16 21 mph 1011.3mb 83f
4:00 17 21 mph 1011.3mb 83f
3:54 14 18 mph 1011.4mb 83f
3:48 14 18 mph 1011.2mb 83f
3:42 16 21 mph 1011.3mb 83f
3:36 17 22 mph 1011.3mb 83f
3:30 16 21 mph 1011.4mb 83f
3:24 15 20 mph 1011.3mb 83f
3:18 17 22 mph 1011.3mb 83f
3:12 18 23 mph 1011.3mb 83f
3:06 16 21 mph 1011.5mb 83f
3:00 17 22 mph 1011.6mb 82f
2:54 17 22 mph 1011.6mb 83f
2:48 17 22 mph 1011.7mb 83f
2:42 18 23 mph 1011.7mb 84f
2:36 14 20 mph 1011.8mb 84f
2:30 16 22 mph 1011.8mb 84f
2:24 17 22 mph 1011.8mb 85f
2:18 15 20 mph 1011.8mb 85f
2:12 14 17 mph 1011.9mb 85f
2:06 11 16 mph 1011.9mb 85f
2:00 15 17 mph 1012mb 85f
1:54 13 16 mph 1012.1mb 85f
1:48 13 15 mph 1012.2mb 85f
1:42 10 13 mph 1012.2mb 85f
1:36 11 14 mph 1012.1mb 85f
1:30 13 14 mph 1012.2mb 85f
1:24 10 14 mph 1012.2mb 85f
1:18 10 13 mph 1012.2mb 85f
1:12 10 15 mph 1012.3mb 85f
1:06 11 14 mph 1012.3mb 85f
1:00 11 15 mph 1012.4mb 85f
12:54 9 13 mph 1012.4mb 85f
12:48 10 14 mph 1012.4mb 85f
12:42 9 11 mph 1012.4mb 84f
12:36 13 14 mph 1012.4mb 83f
12:30 11 13 mph 1012.5mb 84f
12:24 14 16 mph 1012.5mb 83f
12:18 15
mph
1012.5mb 82f
12:12 15 16 mph 1012.5mb 81f
12:06 14
mph
1012.5mb 81f
12:00 13 14 mph 1012.6mb 81f
11:54 11 13 mph 1012.7mb 82f
11:48 13
mph
1012.6mb 82f
11:42 11 13 mph 1012.7mb 81f
11:36 11 13 mph 1012.8mb 81f
11:30 10 11 mph 1012.9mb 80f
11:24 10
mph
1012.9mb 80f
11:18 10 11 mph 1012.9mb 80f
11:12 8 10 mph 1013mb 80f
11:06 8 9 mph 1013.1mb 79f
11:00 9 10 mph 1013.1mb 79f
10:54 10 11 mph 1013.1mb 79f
10:48 9 10 mph 1013.2mb 79f
10:42 9 10 mph 1013.3mb 78f
10:36 10
mph
1013.3mb 78f
10:30 9 10 mph 1013.3mb 78f
10:24 8
mph
1013.3mb 79f
10:18 8 9 mph 1013.3mb 79f
10:12 10
mph
1013.3mb 79f
10:06 9 10 mph 1013.3mb 79f
10:00 9 10 mph 1013.2mb 79f
9:54 9 10 mph 1013.2mb 78f
9:48 8 9 mph 1013.3mb 78f
9:42 8 9 mph 1013.3mb 78f
9:36 9 10 mph 1013.3mb 78f
9:30 8 9 mph 1013.3mb 78f
9:24 8 9 mph 1013.3mb 78f
9:18 8 9 mph 1013.3mb 78f
9:12 9
mph
1013.3mb 77f
9:06 8 9 mph 1013.2mb 77f
9:00 8 9 mph 1013.3mb 77f
8:54 8 9 mph 1013.3mb 77f
8:48 7 8 mph 1013.3mb 77f
8:42 7 8 mph 1013.3mb 77f
8:36 8
mph
1013.4mb 76f
8:30 7 8 mph 1013.4mb 76f
8:24 7 8 mph 1013.5mb 76f
8:18 6 7 mph 1013.5mb 76f
8:12 6 7 mph 1013.4mb 76f
8:06 6 8 mph 1013.3mb 76f
8:00 7 8 mph 1013.3mb 76f
7:54 8
mph
1013.3mb 76f
7:48 8 9 mph 1013.3mb 76f
7:42 6 7 mph 1013.4mb 76f
7:36 6 7 mph 1013.4mb 76f
7:30 6 7 mph 1013.3mb 75f
7:24 6 8 mph 1013.3mb 76f
7:18 6 7 mph 1013.2mb 76f
7:12 6 7 mph 1013.1mb 76f
7:06 6 7 mph 1013.1mb 76f
7:00 6 7 mph 1013.1mb 75f
6:54 5 6 mph 1013.1mb 75f
6:48 6 7 mph 1013.1mb 75f
6:42 7 9 mph 1013.1mb 75f
6:36 7 8 mph 1013.2mb 75f
6:30 8 10 mph 1013.2mb 75f
6:24 8 10 mph 1013.3mb 74f
6:18 9 10 mph 1013.3mb 75f
6:12 8 10 mph 1013.3mb 75f
6:06 8 9 mph 1013.2mb 75f
6:00 8 9 mph 1013.2mb 75f
5:54 7 8 mph 1013.1mb 75f
5:48 6 8 mph 1013mb 75f
5:42 7 8 mph 1012.9mb 75f
5:36 8 9 mph 1012.8mb 75f
5:30 8 10 mph 1012.7mb 75f
5:24 8 10 mph 1012.7mb 75f
5:18 8 9 mph 1012.8mb 75f
5:12 7 9 mph 1012.6mb 75f
5:06 8 9 mph 1012.5mb 75f
5:00 7 9 mph 1012.5mb 75f
4:54 7 9 mph 1012.5mb 75f
4:48 7 8 mph 1012.5mb 75f
4:36 6 8 mph 1012.5mb 75f
4:30 7 8 mph 1012.5mb 75f
4:24 8 10 mph 1012.6mb 75f
4:18 8 10 mph 1012.5mb 75f
4:12 7 9 mph 1012.5mb 75f
4:06 7 8 mph 1012.5mb 75f
4:00 6 8 mph 1012.6mb 75f
3:54 6 8 mph 1012.5mb 75f
3:48 8 10 mph 1012.5mb 75f
3:42 8 10 mph 1012.4mb 75f
3:36 9 11 mph 1012.4mb 75f
3:30 10 11 mph 1012.5mb 75f
3:24 10 11 mph 1012.5mb 76f
3:18 8 10 mph 1012.5mb 75f
3:12 8 9 mph 1012.5mb 75f
3:06 7 9 mph 1012.5mb 75f
3:00 8 9 mph 1012.5mb 75f
2:54 6 8 mph 1012.5mb 75f
2:48 6 8 mph 1012.5mb -
2:42 6 7 mph 1012.5mb -
2:36 9 11 mph 1012.6mb -
2:30 10 11 mph 1012.6mb 76f
2:24 10 11 mph 1012.7mb 76f
2:18 9 10 mph 1012.7mb 76f
2:12 9 11 mph 1012.7mb 76f
2:06 9 11 mph 1012.7mb 76f
2:00 10 11 mph 1012.7mb 76f
1:54 11 13 mph 1012.6mb 76f
1:48 11 13 mph 1012.6mb -
1:42 13 14 mph 1012.6mb -
1:36 11 14 mph 1012.5mb -
1:30 11 13 mph 1012.6mb 76f
1:24 11 14 mph 1012.6mb 76f
1:18 11 14 mph 1012.6mb 76f
1:12 11 14 mph 1012.7mb 77f
1:06 11 14 mph 1012.7mb 77f
1:00 14 16 mph 1012.6mb 76f
12:54 13 16 mph 1012.6mb 77f
12:48 13 14 mph 1012.6mb 76f
12:42 14
mph
1012.6mb 76f
12:36 13 14 mph 1012.6mb 76f
12:30 13 14 mph 1012.6mb 76f
12:24 14 15 mph 1012.6mb 76f
12:18 13 15 mph 1012.6mb 76f
12:12 14 15 mph 1012.7mb 76f
12:06 14 16 mph 1012.7mb 76f
12:00 14 15 mph 1012.6mb 76f
Mi 07/27 11:54 14 16 mph 1012.6mb 76f
11:48 15 16 mph 1012.6mb 76f
11:42 15 17 mph 1012.8mb 76f
11:36 15 17 mph 1012.8mb 76f
11:30 15 17 mph 1012.8mb 77f
11:24 16 17 mph 1012.8mb 77f
11:18 15 17 mph - -
11:12 15 17 mph - -
11:06 16 18 mph - -
11:00 15 17 mph 1012.9mb -
10:54 15 17 mph 1012.8mb -
10:48 14 16 mph - -
10:42 16 18 mph - -
10:36 14 17 mph - -
10:30 13 16 mph - -
10:24 14 16 mph - -
10:18 13 16 mph - -
10:12 10 14 mph - -
10:06 8 10 mph - -
10:00 9 11 mph - -
9:54 9 10 mph - -
9:48 9 11 mph - -
9:42 10 13 mph - -
9:36 9 11 mph - -
9:30  -  mph 1012.5mb -
9:24  -  mph 1012.5mb -
9:18 10 13 mph - -
9:12 9 11 mph - -
9:06 9 11 mph - -
9:00 10 11 mph - -
8:54 11 14 mph - -
8:48 11 14 mph 1012.2mb -
8:42 13 15 mph 1012.2mb -
8:36 11 14 mph 1012.2mb -
8:30  -  mph 1012.2mb -
8:24  -  mph 1012.2mb -
8:18  -  mph - 80f
8:12  -  mph - 80f
8:06  -  mph - 80f
8:00  -  mph - 80f
7:54  -  mph - 80f
7:48  -  mph 1011.9mb -
7:42  -  mph 1011.9mb -
7:36  -  mph 1011.9mb -
7:30 15 18 mph - -
7:24 16 21 mph - -
7:18  -  mph - 81f
7:12  -  mph - 81f
7:06  -  mph - 81f
7:00  -  mph - 81f
6:54  -  mph - 81f
6:48  -  mph - 81f
6:42  -  mph - 81f
6:36  -  mph - 82f
6:30 20 22 mph - -
6:24 18 22 mph - -
6:18 18 22 mph 1011.7mb 81f
6:12 20 23 mph 1011.6mb 81f
6:06 21 24 mph 1011.6mb 81f
6:00 21 23 mph 1011.6mb 82f
5:54 21 24 mph 1011.6mb 82f
5:48 22 25 mph - 82f
5:42 21 25 mph - 82f
5:36 21 26 mph - 82f
5:30 20 24 mph 1011.8mb 82f
5:24 21 23 mph 1011.8mb 82f
5:18 20 23 mph 1011.8mb 82f
5:12 20 23 mph 1011.9mb 83f
5:06 20 22 mph 1012mb 83f
5:00 20 23 mph 1012mb 83f
4:54 17 21 mph 1012mb 83f
4:48 17 21 mph 1012.1mb 83f
4:42 18 22 mph 1012.1mb 83f
4:36 17 23 mph 1012.2mb 83f
4:30 20 22 mph 1012.1mb 83f
4:24 18 21 mph 1012.1mb 83f
4:18 18 21 mph 1012.1mb 83f
4:12 18 21 mph 1012.1mb 83f
4:06 17 20 mph 1012.2mb 83f
4:00 17 20 mph 1012.2mb 83f
3:54 17 20 mph 1012.2mb 83f
3:48 17 21 mph 1012.3mb 83f
3:42 17 20 mph 1012.3mb 83f
3:36 17 20 mph 1012.4mb 83f
3:30 16 18 mph 1012.3mb 83f
3:24 18 20 mph 1012.3mb 82f
3:18 18 20 mph 1012.4mb 82f
3:12 17 20 mph 1012.5mb 82f
3:06 20 22 mph 1012.5mb 82f
3:00 20 22 mph 1012.6mb 82f
2:54 20 21 mph 1012.6mb 81f
2:48 18 22 mph 1012.7mb 81f
2:42 20 22 mph 1012.7mb 81f
2:36 17 20 mph 1012.7mb 82f
2:30 22 23 mph 1012.7mb 82f
2:24 14 15 mph 1012.7mb 83f
2:18 15 16 mph 1012.8mb 82f
2:12 16 21 mph 1012.7mb 82f
2:06 13 14 mph 1012.7mb 83f
2:00 11 13 mph 1012.8mb 82f
1:54 13 14 mph 1012.8mb 83f
1:48 14 16 mph 1012.9mb 83f
1:42 14 15 mph 1012.9mb 83f
1:36 13 14 mph 1013mb 83f
1:30 11 17 mph 1013mb 83f
1:24 7 8 mph 1013mb 84f
1:18 7 8 mph 1013mb 84f
1:12 7 8 mph 1013mb 84f
1:00 6 7 mph 1013.1mb 83f
12:54 6 7 mph 1013.2mb 83f
12:48 7 8 mph 1013.2mb 83f
12:42 8 9 mph 1013.2mb 83f
12:36 8
mph
1013.2mb 83f
12:30 7 8 mph 1013.2mb 83f
12:24 8 9 mph 1013.3mb 82f
12:18 8 10 mph 1013.3mb 82f
12:12 9 10 mph 1013.3mb 82f
12:06 9 10 mph 1013.3mb 82f
12:00 8 9 mph 1013.3mb 82f
11:54 9 10 mph 1013.3mb 81f
11:48 11 14 mph 1013.3mb 81f
11:42 14
mph
1013.3mb 81f
11:36 11 14 mph 1013.4mb 81f
11:30 8 10 mph 1013.4mb 81f
11:24 7 8 mph 1013.4mb 82f
11:18 6 7 mph 1013.5mb 81f
11:12 6 8 mph 1013.5mb 81f
11:06 5 6 mph 1013.5mb 81f
11:00 7
mph
1013.5mb 81f
10:54 7 8 mph 1013.5mb 80f
10:48 6 7 mph 1013.5mb 80f
10:42 6
mph
1013.6mb 80f
10:36 5 6 mph 1013.6mb 81f
10:30  -  3 mph 1013.6mb 82f
10:24  -  2 mph 1013.6mb 82f
10:18 3 7 mph 1013.6mb 81f
10:12 2 3 mph 1013.6mb 81f
10:06 2 3 mph 1013.7mb 82f
10:00 3 5 mph 1013.7mb 81f
9:54 3
mph
1013.8mb 81f
9:48 3 5 mph 1013.8mb 81f
9:42 2 3 mph 1013.9mb 81f
9:36 6 7 mph 1013.8mb 81f
9:30 6 7 mph 1013.7mb 80f
9:24 6 7 mph 1013.8mb 81f
9:18 7 8 mph 1013.7mb 80f
9:12 8 9 mph 1013.7mb 80f
9:06 7 9 mph 1013.8mb 80f
9:00 7
mph
1013.8mb 80f
8:54 6 8 mph 1013.9mb 80f
8:48 5 6 mph 1013.9mb 80f
8:42 3 5 mph 1013.9mb 80f
8:36 5 6 mph 1013.9mb 79f
8:30 3 5 mph 1013.9mb 79f
8:24 2 3 mph 1013.9mb 78f
8:18 3 7 mph 1013.9mb 77f
8:12 1 2 mph 1013.9mb 77f
8:06 2 3 mph 1013.9mb 77f
8:00 3 6 mph 1013.9mb 77f
7:54 3 5 mph 1013.9mb 76f
7:48 5 6 mph 1013.9mb 76f
7:42 3 6 mph 1013.9mb 75f
7:36 3 5 mph 1013.9mb 75f
7:30  -  3 mph 1013.9mb 75f